Terminal Aerodrome Forecast
Issued by NWS

Home | Current Version | Previous Version | Graphics & Text | Print | Product List | Glossary On
Versions: 1 2 3 4 5 6 7 8 9 10 11 12 13 14 15 16 17
269
FTUS43 KTOP 221126
TAFMHK
TAF
KMHK 221126Z 2212/2312 14011KT P6SM SCT030 BKN050
     FM230400 17010KT P6SM SCT025 BKN050=

USA.gov is the U.S. government's official web portal to all federal, state and local government web resources and services.